createdAt,value
2023-04-02T00:01:02.543Z,68.77
2023-04-02T00:03:45.880Z,68.84
2023-04-02T00:06:30.518Z,68.91
2023-04-02T00:09:02.688Z,68.87
2023-04-02T00:11:37.423Z,68.97
2023-04-02T00:14:06.465Z,69.05
2023-04-02T00:16:34.399Z,69.21
2023-04-02T00:19:06.512Z,69.24
2023-04-02T00:21:37.288Z,69.16
2023-04-02T00:24:18.128Z,69.05
2023-04-02T00:26:46.884Z,69.02
2023-04-02T00:29:15.948Z,69.03
2023-04-02T00:31:46.887Z,68.73
2023-04-02T00:34:33.258Z,68.65
2023-04-02T00:37:02.012Z,68.48
2023-04-02T00:39:33.076Z,68.65
2023-04-02T00:42:06.935Z,68.46
2023-04-02T00:44:37.854Z,68.48
2023-04-02T00:47:15.252Z,68.44
2023-04-02T00:49:43.907Z,68.57
2023-04-02T00:52:13.249Z,68.47
2023-04-02T00:54:43.971Z,68.63
2023-04-02T00:57:16.576Z,68.59
2023-04-02T01:00:08.609Z,68.84
2023-04-02T01:02:41.062Z,69.19
2023-04-02T01:05:15.168Z,69.50
2023-04-02T01:07:43.057Z,69.87
2023-04-02T01:10:32.086Z,70.18
2023-04-02T01:12:59.947Z,70.14
2023-04-02T01:15:31.022Z,70.14
2023-04-02T01:18:01.826Z,70.54
2023-04-02T01:20:49.102Z,70.78
2023-04-02T01:23:30.888Z,71.06
2023-04-02T01:26:10.736Z,71.36
2023-04-02T01:28:46.654Z,71.75
2023-04-02T01:31:15.523Z,72.18
2023-04-02T01:33:43.915Z,72.16
2023-04-02T01:36:17.121Z,72.10
2023-04-02T01:38:58.301Z,72.41
2023-04-02T01:41:39.622Z,72.72
2023-04-02T01:44:09.737Z,72.90
2023-04-02T01:46:40.429Z,72.96
2023-04-02T01:49:18.332Z,73.05
2023-04-02T01:51:51.322Z,73.00
2023-04-02T01:54:20.234Z,73.07
2023-04-02T01:56:48.823Z,73.15
2023-04-02T01:59:22.578Z,73.09
2023-04-02T02:02:02.704Z,73.05
2023-04-02T02:04:31.454Z,72.80
2023-04-02T02:07:02.336Z,72.94
2023-04-02T02:09:32.629Z,72.90
2023-04-02T02:12:02.864Z,72.96
2023-04-02T02:14:31.815Z,72.90
2023-04-02T02:17:02.480Z,72.99
2023-04-02T02:19:38.648Z,73.09
2023-04-02T02:22:13.920Z,73.04
2023-04-02T02:24:42.401Z,73.11
2023-04-02T02:27:22.745Z,73.36
2023-04-02T02:29:54.835Z,73.41
2023-04-02T02:32:25.548Z,73.52
2023-04-02T02:35:26.539Z,73.75
2023-04-02T02:37:57.674Z,74.50
2023-04-02T02:40:32.027Z,75.27
2023-04-02T02:43:02.888Z,75.62
2023-04-02T02:45:34.906Z,75.97
2023-04-02T02:48:05.385Z,76.32
2023-04-02T02:50:33.937Z,76.91
2023-04-02T02:53:04.785Z,77.17
2023-04-02T02:55:37.018Z,77.71
2023-04-02T02:58:20.283Z,77.86
2023-04-02T03:00:56.729Z,78.04
2023-04-02T03:03:27.507Z,78.14
2023-04-02T03:06:02.215Z,78.23
2023-04-02T03:08:34.096Z,78.25
2023-04-02T03:11:08.941Z,78.21
2023-04-02T03:13:39.008Z,78.44
2023-04-02T03:16:11.785Z,78.31
2023-04-02T03:18:46.684Z,78.40
2023-04-02T03:21:21.056Z,78.60
2023-04-02T03:23:53.784Z,78.59
2023-04-02T03:26:25.615Z,78.44
2023-04-02T03:29:01.235Z,78.31
2023-04-02T03:31:35.485Z,78.00
2023-04-02T03:34:25.741Z,77.85
2023-04-02T03:36:58.016Z,77.53
2023-04-02T03:39:31.410Z,77.37
2023-04-02T03:42:09.354Z,77.31
2023-04-02T03:44:38.253Z,77.33
2023-04-02T03:47:31.071Z,77.32
2023-04-02T03:49:58.926Z,77.47
2023-04-02T03:52:28.638Z,77.65
2023-04-02T03:54:59.978Z,77.69
2023-04-02T03:57:48.307Z,77.56
2023-04-02T04:00:24.949Z,77.57
2023-04-02T04:02:57.565Z,77.58
2023-04-02T04:05:31.977Z,77.67
2023-04-02T04:08:02.813Z,77.73
2023-04-02T04:10:31.208Z,77.87
2023-04-02T04:13:05.882Z,77.79
2023-04-02T04:15:33.882Z,77.91
2023-04-02T04:18:06.005Z,77.95
2023-04-02T04:20:41.079Z,78.18
2023-04-02T04:23:10.933Z,78.17
2023-04-02T04:25:40.107Z,78.51
2023-04-02T04:28:24.530Z,78.46
2023-04-02T04:30:53.028Z,78.44
2023-04-02T04:33:50.579Z,78.42
2023-04-02T04:36:30.053Z,78.36
2023-04-02T04:39:14.604Z,78.39
2023-04-02T04:41:46.802Z,78.47
2023-04-02T04:44:15.826Z,78.54
2023-04-02T04:46:50.538Z,78.68
2023-04-02T04:49:32.942Z,78.66
2023-04-02T04:52:08.240Z,78.68
2023-04-02T04:54:37.823Z,78.93
2023-04-02T04:57:18.028Z,79.01
2023-04-02T04:59:51.486Z,79.10
2023-04-02T05:02:32.528Z,78.87
2023-04-02T05:05:02.745Z,78.61
2023-04-02T05:07:35.325Z,78.38
2023-04-02T05:10:24.676Z,78.24
2023-04-02T05:12:59.298Z,78.21
2023-04-02T05:15:27.120Z,78.39
2023-04-02T05:18:08.310Z,78.59
2023-04-02T05:20:41.381Z,78.37
2023-04-02T05:23:24.444Z,78.20
2023-04-02T05:26:11.359Z,78.13
2023-04-02T05:29:02.217Z,78.02
2023-04-02T05:31:42.486Z,77.95
2023-04-02T05:34:12.813Z,77.79
2023-04-02T05:36:46.613Z,77.60
2023-04-02T05:39:18.868Z,77.50
2023-04-02T05:42:03.465Z,77.49
2023-04-02T05:44:56.523Z,77.49
2023-04-02T05:47:27.804Z,77.41
2023-04-02T05:50:10.435Z,77.08
2023-04-02T05:52:51.836Z,76.91
2023-04-02T05:55:34.286Z,76.99
2023-04-02T05:58:29.655Z,76.90
2023-04-02T06:01:02.293Z,76.73
2023-04-02T06:03:39.482Z,76.72
2023-04-02T06:06:21.280Z,76.82
2023-04-02T06:08:57.764Z,76.77
2023-04-02T06:11:37.544Z,76.83
2023-04-02T06:14:06.819Z,76.67
2023-04-02T06:16:36.872Z,76.41
2023-04-02T06:19:08.071Z,76.23
2023-04-02T06:21:43.047Z,76.72
2023-04-02T06:24:12.471Z,76.93
2023-04-02T06:26:44.048Z,76.88
2023-04-02T06:29:20.066Z,76.77
2023-04-02T06:31:52.457Z,76.63
2023-04-02T06:34:23.626Z,76.66
2023-04-02T06:37:12.698Z,76.73
2023-04-02T06:39:40.686Z,76.71
2023-04-02T06:42:16.102Z,76.72
2023-04-02T06:45:31.057Z,76.74
2023-04-02T06:48:23.148Z,76.88
2023-04-02T06:51:16.855Z,76.89
2023-04-02T06:53:49.429Z,77.05
2023-04-02T06:56:20.129Z,77.35
2023-04-02T06:58:48.219Z,77.71
2023-04-02T07:01:25.145Z,78.21
2023-04-02T07:03:53.247Z,78.52
2023-04-02T07:06:27.311Z,78.89
2023-04-02T07:08:59.101Z,79.20
2023-04-02T07:11:28.490Z,79.44
2023-04-02T07:13:59.661Z,79.49
2023-04-02T07:16:29.629Z,79.56
2023-04-02T07:18:59.253Z,79.52
2023-04-02T07:21:28.998Z,79.40
2023-04-02T07:23:57.457Z,79.23
2023-04-02T07:26:27.721Z,79.39
2023-04-02T07:28:56.286Z,79.48
2023-04-02T07:31:25.975Z,79.34
2023-04-02T07:33:55.878Z,79.17
2023-04-02T07:36:24.629Z,79.22
2023-04-02T07:38:52.939Z,79.01
2023-04-02T07:41:21.472Z,78.75
2023-04-02T07:43:49.478Z,78.63
2023-04-02T07:46:19.319Z,79.85
2023-04-02T07:48:48.042Z,80.49
2023-04-02T07:51:20.176Z,80.02
2023-04-02T07:53:56.267Z,78.89
2023-04-02T07:56:25.193Z,78.29
2023-04-02T07:58:53.106Z,78.09
2023-04-02T08:01:27.750Z,77.77
2023-04-02T08:03:57.153Z,77.04
2023-04-02T08:06:25.488Z,77.26
2023-04-02T08:08:53.593Z,77.21
2023-04-02T08:11:21.566Z,77.28
2023-04-02T08:13:49.541Z,77.02
2023-04-02T08:16:17.765Z,76.93
2023-04-02T08:18:47.577Z,76.71
2023-04-02T08:21:16.753Z,76.56
2023-04-02T08:23:45.003Z,76.45
2023-04-02T08:26:17.148Z,76.42
2023-04-02T08:28:45.756Z,76.32
2023-04-02T08:31:13.663Z,75.84
2023-04-02T08:33:41.594Z,75.66
2023-04-02T08:36:15.190Z,75.75
2023-04-02T08:38:43.085Z,75.93
2023-04-02T08:41:19.902Z,75.66
2023-04-02T08:44:01.206Z,75.50
2023-04-02T08:46:50.878Z,75.60
2023-04-02T08:49:25.045Z,75.52
2023-04-02T08:51:53.578Z,75.11
2023-04-02T08:54:27.813Z,74.94
2023-04-02T08:56:56.149Z,74.89
2023-04-02T08:59:30.853Z,74.95
2023-04-02T09:01:58.748Z,74.66
2023-04-02T09:04:27.710Z,74.43
2023-04-02T09:06:57.346Z,74.47
2023-04-02T09:09:25.610Z,74.22
2023-04-02T09:12:04.528Z,73.85
2023-04-02T09:14:32.365Z,73.61
2023-04-02T09:17:02.133Z,73.21
2023-04-02T09:19:36.372Z,73.09
2023-04-02T09:22:09.644Z,72.83
2023-04-02T09:24:37.968Z,73.26
2023-04-02T09:27:17.100Z,73.72
2023-04-02T09:29:46.496Z,74.22
2023-04-02T09:32:23.690Z,74.25
2023-04-02T09:35:15.027Z,74.63
2023-04-02T09:37:47.713Z,75.06
2023-04-02T09:40:15.933Z,75.19
2023-04-02T09:42:43.631Z,74.45
2023-04-02T09:45:13.531Z,74.68
2023-04-02T09:47:42.488Z,75.03
2023-04-02T09:50:15.440Z,75.03
2023-04-02T09:52:43.973Z,74.55
2023-04-02T09:55:15.425Z,74.38
2023-04-02T09:57:43.366Z,74.23
2023-04-02T10:00:29.792Z,74.44
2023-04-02T10:03:05.090Z,74.72
2023-04-02T10:08:07.593Z,74.77
2023-04-02T10:10:35.560Z,74.58
2023-04-02T10:13:06.883Z,74.62
2023-04-02T10:15:53.115Z,74.66
2023-04-02T10:18:40.144Z,74.85
2023-04-02T10:21:10.119Z,75.21
2023-04-02T10:23:38.854Z,74.59
2023-04-02T10:26:10.264Z,74.57
2023-04-02T10:28:38.757Z,74.48
2023-04-02T10:31:13.208Z,74.59
2023-04-02T10:33:43.620Z,74.53
2023-04-02T10:36:11.560Z,74.19
2023-04-02T10:38:51.187Z,74.08
2023-04-02T10:41:32.632Z,73.70
2023-04-02T10:44:32.662Z,73.23
2023-04-02T10:47:00.974Z,73.03
2023-04-02T10:49:29.078Z,72.87
2023-04-02T10:52:13.559Z,72.56
2023-04-02T10:54:46.965Z,72.53
2023-04-02T10:57:17.724Z,72.65
2023-04-02T10:59:49.625Z,72.50
2023-04-02T11:02:26.012Z,72.49
2023-04-02T11:04:57.533Z,72.00
2023-04-02T11:07:29.174Z,71.87
2023-04-02T11:09:57.992Z,72.03
2023-04-02T11:12:32.427Z,71.67
2023-04-02T11:15:00.886Z,71.79
2023-04-02T11:17:28.853Z,72.17
2023-04-02T11:20:16.901Z,72.29
2023-04-02T11:22:44.862Z,72.41
2023-04-02T11:25:21.462Z,72.23
2023-04-02T11:27:49.927Z,72.40
2023-04-02T11:30:18.887Z,71.90
2023-04-02T11:32:49.748Z,71.90
2023-04-02T11:35:26.669Z,71.91
2023-04-02T11:37:56.236Z,71.87
2023-04-02T11:40:44.571Z,72.22
2023-04-02T11:43:30.896Z,72.36
2023-04-02T11:45:59.734Z,72.62
2023-04-02T11:48:29.850Z,72.53
2023-04-02T11:50:58.303Z,72.48
2023-04-02T11:53:32.868Z,72.20
2023-04-02T11:56:30.660Z,72.61
2023-04-02T11:59:07.367Z,72.06
2023-04-02T12:01:35.372Z,71.67
2023-04-02T12:04:21.536Z,71.43
2023-04-02T12:06:52.393Z,71.59
2023-04-02T12:09:27.911Z,71.61
2023-04-02T12:11:57.477Z,71.61
2023-04-02T12:14:43.969Z,71.04
2023-04-02T12:17:30.939Z,70.89
2023-04-02T12:20:01.900Z,70.76
2023-04-02T12:22:32.031Z,70.60
2023-04-02T12:25:02.435Z,70.75
2023-04-02T12:27:30.668Z,70.16
2023-04-02T12:30:14.712Z,69.13
2023-04-02T12:32:42.739Z,68.85
2023-04-02T12:35:32.700Z,68.78
2023-04-02T12:38:01.126Z,68.44
2023-04-02T12:40:29.466Z,68.06
2023-04-02T12:42:57.576Z,67.92
2023-04-02T12:45:31.208Z,67.81
2023-04-02T12:48:01.998Z,67.68
2023-04-02T12:50:30.734Z,67.25
2023-04-02T12:53:01.142Z,66.47
2023-04-02T12:55:29.421Z,65.52
2023-04-02T12:57:58.512Z,64.66
2023-04-02T13:00:26.299Z,64.86
2023-04-02T13:02:57.444Z,64.36
2023-04-02T13:05:37.284Z,63.72
2023-04-02T13:08:05.845Z,63.50
2023-04-02T13:10:33.764Z,63.60
2023-04-02T13:13:03.218Z,63.43
2023-04-02T13:15:32.438Z,63.69
2023-04-02T13:18:18.106Z,64.46
2023-04-02T13:20:56.713Z,64.67
2023-04-02T13:23:24.583Z,63.71
2023-04-02T13:25:52.412Z,63.59
2023-04-02T13:28:21.081Z,63.87
2023-04-02T13:30:49.039Z,63.66
2023-04-02T13:33:17.375Z,63.32
2023-04-02T13:35:45.454Z,63.08
2023-04-02T13:38:13.376Z,62.98
2023-04-02T13:40:41.391Z,62.79
2023-04-02T13:43:15.901Z,62.44
2023-04-02T13:45:44.220Z,61.41
2023-04-02T13:48:14.012Z,61.34
2023-04-02T13:50:42.446Z,60.53
2023-04-02T13:53:14.197Z,60.01
2023-04-02T13:55:43.013Z,60.47
2023-04-02T13:58:11.507Z,60.11
2023-04-02T14:00:39.508Z,60.10
2023-04-02T14:03:13.202Z,59.81
2023-04-02T14:05:47.227Z,59.15
2023-04-02T14:08:17.976Z,57.60
2023-04-02T14:10:45.844Z,57.17
2023-04-02T14:13:28.643Z,57.05
2023-04-02T14:16:15.482Z,57.29
2023-04-02T14:18:46.428Z,57.14
2023-04-02T14:21:29.229Z,57.16
2023-04-02T14:23:57.204Z,57.41
2023-04-02T14:26:28.161Z,56.82
2023-04-02T14:28:58.979Z,56.06
2023-04-02T14:31:39.264Z,54.96
2023-04-02T14:34:14.959Z,53.55
2023-04-02T14:36:43.053Z,53.88
2023-04-02T14:39:10.993Z,54.86
2023-04-02T14:41:58.122Z,55.36
2023-04-02T14:44:28.713Z,55.57
2023-04-02T14:47:00.695Z,55.01
2023-04-02T14:49:28.412Z,55.24
2023-04-02T14:51:56.626Z,55.69
2023-04-02T14:54:40.100Z,55.68
2023-04-02T14:57:08.230Z,54.64
2023-04-02T14:59:54.803Z,54.40
2023-04-02T15:02:30.553Z,54.66
2023-04-02T15:05:01.541Z,55.32
2023-04-02T15:07:36.651Z,55.53
2023-04-02T15:10:14.337Z,55.22
2023-04-02T15:12:42.974Z,54.72
2023-04-02T15:15:26.960Z,55.00
2023-04-02T15:18:01.760Z,55.23
2023-04-02T15:20:34.471Z,54.56
2023-04-02T15:23:09.699Z,53.32
2023-04-02T15:25:42.623Z,53.05
2023-04-02T15:28:20.899Z,53.48
2023-04-02T15:30:52.442Z,53.23
2023-04-02T15:33:30.319Z,52.76
2023-04-02T15:36:26.228Z,52.25
2023-04-02T15:38:57.286Z,52.57
2023-04-02T15:41:26.873Z,53.25
2023-04-02T15:44:00.939Z,53.19
2023-04-02T15:46:46.365Z,53.00
2023-04-02T15:49:20.412Z,52.72
2023-04-02T15:51:59.641Z,52.06
2023-04-02T15:54:36.524Z,51.59
2023-04-02T15:57:26.766Z,51.34
2023-04-02T16:00:04.284Z,51.97
2023-04-02T16:02:58.811Z,52.29
2023-04-02T16:05:36.045Z,52.47
2023-04-02T16:08:22.810Z,52.76
2023-04-02T16:10:50.969Z,52.53
2023-04-02T16:13:26.124Z,52.23
2023-04-02T16:16:12.941Z,52.99
2023-04-02T16:18:59.376Z,52.52
2023-04-02T16:21:29.459Z,52.49
2023-04-02T16:23:57.380Z,52.25
2023-04-02T16:26:43.904Z,52.18
2023-04-02T16:29:11.918Z,52.59
2023-04-02T16:31:39.905Z,53.71
2023-04-02T16:34:25.505Z,54.43
2023-04-02T16:37:12.448Z,54.62
2023-04-02T16:39:58.942Z,55.31
2023-04-02T16:42:27.208Z,55.92
2023-04-02T16:44:55.469Z,55.92
2023-04-02T16:47:23.374Z,56.45
2023-04-02T16:50:00.541Z,56.82
2023-04-02T16:52:47.353Z,56.59
2023-04-02T16:55:33.713Z,57.10
2023-04-02T16:58:01.821Z,57.22
2023-04-02T17:00:39.112Z,57.60
2023-04-02T17:03:22.529Z,57.63
2023-04-02T17:05:59.595Z,57.82
2023-04-02T17:08:31.754Z,58.43
2023-04-02T17:11:06.490Z,58.60
2023-04-02T17:13:39.342Z,58.31
2023-04-02T17:16:07.313Z,58.37
2023-04-02T17:18:35.770Z,58.26
2023-04-02T17:21:09.009Z,58.51
2023-04-02T17:26:24.447Z,59.18
2023-04-02T17:28:53.168Z,58.94
2023-04-02T17:31:25.531Z,59.33
2023-04-02T17:33:53.422Z,59.51
2023-04-02T17:36:22.440Z,59.72
2023-04-02T17:38:50.952Z,59.86
2023-04-02T17:41:28.470Z,60.17
2023-04-02T17:43:56.693Z,60.54
2023-04-02T17:46:44.209Z,61.02
2023-04-02T17:49:20.444Z,61.31
2023-04-02T17:51:52.025Z,61.33
2023-04-02T17:54:31.070Z,61.36
2023-04-02T17:56:59.019Z,61.66
2023-04-02T17:59:45.748Z,61.37
2023-04-02T18:02:19.626Z,61.21
2023-04-02T18:04:47.791Z,60.72
2023-04-02T18:07:31.670Z,60.66
2023-04-02T18:09:59.661Z,60.54
2023-04-02T18:12:27.497Z,60.44
2023-04-02T18:14:56.187Z,60.40
2023-04-02T18:17:26.901Z,60.65
2023-04-02T18:19:54.846Z,60.57
2023-04-02T18:22:25.746Z,60.36
2023-04-02T18:25:14.835Z,60.25
2023-04-02T18:27:49.405Z,60.60
2023-04-02T18:30:21.629Z,60.79
2023-04-02T18:33:00.309Z,60.94
2023-04-02T18:35:28.326Z,61.82
2023-04-02T18:38:17.454Z,63.06
2023-04-02T18:41:00.436Z,64.13
2023-04-02T18:43:28.595Z,65.19
2023-04-02T18:46:05.271Z,65.63
2023-04-02T18:48:36.624Z,66.11
2023-04-02T18:51:06.913Z,66.48
2023-04-02T18:53:35.921Z,66.56
2023-04-02T18:56:06.299Z,66.95
2023-04-02T18:58:39.823Z,67.15
2023-04-02T19:01:09.920Z,67.37
2023-04-02T19:03:55.232Z,67.66
2023-04-02T19:06:28.852Z,67.83
2023-04-02T19:09:08.046Z,68.15
2023-04-02T19:11:36.528Z,68.41
2023-04-02T19:14:12.286Z,68.64
2023-04-02T19:16:40.036Z,68.79
2023-04-02T19:19:11.130Z,68.79
2023-04-02T19:21:46.631Z,69.05
2023-04-02T19:24:27.226Z,69.22
2023-04-02T19:27:12.583Z,69.48
2023-04-02T19:29:57.537Z,69.55
2023-04-02T19:32:44.219Z,69.66
2023-04-02T19:35:27.259Z,69.81
2023-04-02T19:38:05.691Z,69.88
2023-04-02T19:40:39.579Z,69.83
2023-04-02T19:43:09.616Z,69.81
2023-04-02T19:45:39.694Z,69.67
2023-04-02T19:48:26.222Z,68.98
2023-04-02T19:50:54.285Z,67.80
2023-04-02T19:53:22.290Z,66.86
2023-04-02T19:55:51.030Z,65.39
2023-04-02T19:58:26.079Z,64.69
2023-04-02T20:00:54.523Z,64.39
2023-04-02T20:03:22.541Z,63.73
2023-04-02T20:05:50.520Z,63.58
2023-04-02T20:08:18.664Z,63.65
2023-04-02T20:10:46.643Z,63.54
2023-04-02T20:13:14.718Z,63.67
2023-04-02T20:15:42.880Z,63.53
2023-04-02T20:18:11.074Z,63.62
2023-04-02T20:20:39.923Z,63.66
2023-04-02T20:23:07.704Z,63.78
2023-04-02T20:25:35.613Z,64.06
2023-04-02T20:28:04.056Z,64.44
2023-04-02T20:30:32.567Z,64.56
2023-04-02T20:33:01.115Z,64.67
2023-04-02T20:35:29.811Z,64.98
2023-04-02T20:37:58.734Z,64.88
2023-04-02T20:40:26.726Z,64.91
2023-04-02T20:42:54.640Z,64.89
2023-04-02T20:45:22.895Z,64.90
2023-04-02T20:47:50.912Z,65.08
2023-04-02T20:50:19.292Z,65.10
2023-04-02T20:52:47.126Z,64.98
2023-04-02T20:55:14.922Z,64.99
2023-04-02T20:57:43.157Z,65.10
2023-04-02T21:00:12.187Z,65.29
2023-04-02T21:02:40.073Z,65.38
2023-04-02T21:05:08.452Z,65.57
2023-04-02T21:07:36.448Z,65.60
2023-04-02T21:10:04.763Z,65.61
2023-04-02T21:12:33.298Z,65.55
2023-04-02T21:15:02.785Z,65.79
2023-04-02T21:17:31.249Z,66.00
2023-04-02T21:19:59.095Z,65.87
2023-04-02T21:22:27.138Z,65.85
2023-04-02T21:24:54.929Z,65.91
2023-04-02T21:27:25.939Z,65.80
2023-04-02T21:29:54.390Z,65.77
2023-04-02T21:32:22.539Z,65.56
2023-04-02T21:34:50.598Z,65.61
2023-04-02T21:37:18.735Z,65.51
2023-04-02T21:39:47.162Z,65.48
2023-04-02T21:42:15.298Z,65.55
2023-04-02T21:44:43.048Z,65.46
2023-04-02T21:47:11.102Z,65.55
2023-04-02T21:49:39.379Z,65.68
2023-04-02T21:52:07.311Z,66.04
2023-04-02T21:54:35.270Z,66.23
2023-04-02T21:57:03.290Z,66.23
2023-04-02T21:59:31.365Z,66.44
2023-04-02T22:01:59.237Z,66.38
2023-04-02T22:04:28.742Z,66.30
2023-04-02T22:06:56.945Z,66.43
2023-04-02T22:09:26.187Z,66.35
2023-04-02T22:11:59.383Z,66.25
2023-04-02T22:14:27.962Z,66.37
2023-04-02T22:16:56.138Z,66.33
2023-04-02T22:19:24.074Z,66.38
2023-04-02T22:21:53.164Z,66.41
2023-04-02T22:24:24.996Z,66.61
2023-04-02T22:26:52.845Z,66.61
2023-04-02T22:29:21.317Z,66.55
2023-04-02T22:31:49.128Z,66.75
2023-04-02T22:34:17.016Z,66.88
2023-04-02T22:36:44.711Z,66.87
2023-04-02T22:39:12.665Z,66.81
2023-04-02T22:41:41.336Z,66.88
2023-04-02T22:44:12.703Z,67.13
2023-04-02T22:46:40.624Z,67.27
2023-04-02T22:49:09.383Z,67.39
2023-04-02T22:51:37.252Z,67.21
2023-04-02T22:54:05.803Z,67.18
2023-04-02T22:56:35.382Z,67.18
2023-04-02T22:59:03.286Z,67.21
2023-04-02T23:01:33.267Z,67.22
2023-04-02T23:04:01.474Z,67.30
2023-04-02T23:06:29.593Z,67.36
2023-04-02T23:08:57.556Z,67.39
2023-04-02T23:11:27.546Z,67.31
2023-04-02T23:13:57.042Z,67.35
2023-04-02T23:16:27.204Z,67.35
2023-04-02T23:18:56.142Z,67.64
2023-04-02T23:21:24.472Z,67.71
2023-04-02T23:23:52.372Z,67.20
2023-04-02T23:26:22.622Z,67.23
2023-04-02T23:28:50.862Z,67.35
2023-04-02T23:31:20.461Z,67.32
2023-04-02T23:33:49.059Z,67.11
2023-04-02T23:36:20.857Z,67.18
2023-04-02T23:38:49.084Z,67.29
2023-04-02T23:41:17.372Z,67.34
2023-04-02T23:43:45.344Z,67.28
2023-04-02T23:46:13.685Z,67.39
2023-04-02T23:48:42.005Z,67.36
2023-04-02T23:51:09.906Z,67.39
2023-04-02T23:53:37.912Z,67.22
2023-04-02T23:56:06.086Z,67.16
2023-04-02T23:58:34.240Z,66.97
